createdAt,value
2018-04-22T00:01:18.799Z,16.30
2018-04-22T00:03:46.290Z,16.20
2018-04-22T00:06:13.782Z,16.20
2018-04-22T00:08:41.311Z,16.10
2018-04-22T00:11:08.811Z,16.10
2018-04-22T00:13:36.319Z,16.00
2018-04-22T00:16:03.839Z,16.00
2018-04-22T00:18:31.343Z,15.90
2018-04-22T00:20:58.852Z,15.90
2018-04-22T00:23:26.390Z,15.80
2018-04-22T00:25:53.987Z,15.80
2018-04-22T00:28:21.515Z,15.80
2018-04-22T00:30:49.032Z,15.70
2018-04-22T00:33:16.549Z,15.70
2018-04-22T00:35:44.049Z,15.60
2018-04-22T00:38:11.671Z,15.60
2018-04-22T00:40:39.181Z,15.50
2018-04-22T00:43:06.683Z,15.50
2018-04-22T00:45:34.206Z,15.50
2018-04-22T00:48:01.715Z,15.50
2018-04-22T00:50:29.238Z,15.50
2018-04-22T00:52:56.884Z,15.50
2018-04-22T00:55:24.388Z,15.50
2018-04-22T00:57:51.888Z,15.40
2018-04-22T01:00:19.503Z,15.50
2018-04-22T01:02:47.013Z,15.50
2018-04-22T01:05:14.524Z,15.50
2018-04-22T01:07:42.243Z,15.50
2018-04-22T01:10:09.755Z,15.50
2018-04-22T01:12:37.267Z,15.50
2018-04-22T01:15:05.009Z,15.50
2018-04-22T01:17:32.515Z,15.40
2018-04-22T01:20:00.020Z,15.40
2018-04-22T01:22:27.651Z,15.40
2018-04-22T01:24:55.151Z,15.30
2018-04-22T01:27:22.661Z,15.30
2018-04-22T01:29:50.305Z,15.30
2018-04-22T01:32:17.807Z,15.30
2018-04-22T01:34:45.305Z,15.20
2018-04-22T01:37:12.827Z,15.10
2018-04-22T01:39:40.349Z,15.00
2018-04-22T01:42:07.860Z,14.90
2018-04-22T01:44:35.498Z,14.90
2018-04-22T01:47:03.000Z,14.80
2018-04-22T01:49:30.499Z,14.80
2018-04-22T01:51:58.028Z,14.70
2018-04-22T01:54:25.536Z,14.70
2018-04-22T01:56:53.040Z,14.60
2018-04-22T01:59:20.759Z,14.50
2018-04-22T02:01:48.280Z,14.50
2018-04-22T02:04:15.793Z,14.40
2018-04-22T02:06:43.312Z,14.30
2018-04-22T02:09:10.823Z,14.30
2018-04-22T02:11:38.388Z,14.30
2018-04-22T02:14:06.027Z,14.20
2018-04-22T02:16:33.532Z,14.20
2018-04-22T02:19:01.046Z,14.20
2018-04-22T02:21:28.703Z,14.20
2018-04-22T02:23:56.204Z,14.10
2018-04-22T02:26:23.700Z,14.20
2018-04-22T02:28:51.373Z,14.10
2018-04-22T02:31:18.871Z,14.10
2018-04-22T02:33:46.371Z,14.00
2018-04-22T02:36:13.995Z,13.90
2018-04-22T02:38:41.504Z,13.90
2018-04-22T02:41:09.011Z,13.80
2018-04-22T02:43:36.613Z,13.80
2018-04-22T02:46:04.047Z,13.70
2018-04-22T02:48:31.540Z,13.70
2018-04-22T02:50:59.292Z,13.60
2018-04-22T02:53:26.795Z,13.60
2018-04-22T02:55:54.357Z,13.50
2018-04-22T02:58:22.651Z,13.30
2018-04-22T03:00:50.172Z,13.30
2018-04-22T03:03:17.673Z,13.30
2018-04-22T03:05:45.295Z,13.20
2018-04-22T03:08:12.802Z,13.10
2018-04-22T03:10:40.307Z,13.00
2018-04-22T03:13:08.806Z,12.90
2018-04-22T03:15:36.325Z,12.80
2018-04-22T03:18:03.845Z,12.70
2018-04-22T03:20:31.463Z,12.70
2018-04-22T03:22:58.985Z,12.60
2018-04-22T03:25:26.534Z,12.60
2018-04-22T03:27:54.038Z,12.50
2018-04-22T03:30:21.536Z,12.40
2018-04-22T03:32:49.051Z,12.40
2018-04-22T03:35:16.671Z,12.40
2018-04-22T03:37:44.166Z,12.40
2018-04-22T03:40:11.664Z,12.30
2018-04-22T03:42:39.298Z,12.30
2018-04-22T03:45:06.804Z,12.30
2018-04-22T03:47:34.315Z,12.30
2018-04-22T03:50:01.937Z,12.20
2018-04-22T03:52:29.441Z,12.20
2018-04-22T03:54:56.944Z,12.20
2018-04-22T03:57:24.492Z,12.20
2018-04-22T03:59:51.994Z,12.20
2018-04-22T04:02:19.493Z,12.20
2018-04-22T04:04:47.123Z,12.30
2018-04-22T04:07:14.622Z,12.20
2018-04-22T04:09:42.120Z,12.20
2018-04-22T04:12:09.885Z,12.20
2018-04-22T04:14:37.384Z,12.20
2018-04-22T04:17:04.886Z,12.30
2018-04-22T04:19:44.168Z,12.30
2018-04-22T04:22:23.241Z,12.30
2018-04-22T04:25:02.689Z,12.40
2018-04-22T04:27:45.041Z,12.40
2018-04-22T04:30:12.655Z,12.50
2018-04-22T04:32:40.155Z,12.50
2018-04-22T04:35:07.647Z,12.50
2018-04-22T04:37:35.327Z,12.50
2018-04-22T04:40:02.828Z,12.60
2018-04-22T04:42:30.322Z,12.60
2018-04-22T04:44:57.923Z,12.60
2018-04-22T04:47:25.419Z,12.70
2018-04-22T04:49:52.923Z,12.70
2018-04-22T04:52:20.682Z,12.70
2018-04-22T04:54:48.184Z,12.80
2018-04-22T04:57:15.694Z,12.90
2018-04-22T04:59:43.320Z,12.90
2018-04-22T05:02:10.835Z,13.00
2018-04-22T05:04:38.338Z,13.20
2018-04-22T05:07:05.961Z,13.30
2018-04-22T05:09:33.468Z,13.30
2018-04-22T05:12:00.984Z,13.40
2018-04-22T05:14:28.616Z,13.40
2018-04-22T05:16:56.130Z,13.60
2018-04-22T05:19:23.627Z,13.60
2018-04-22T05:21:51.250Z,13.80
2018-04-22T05:24:18.772Z,13.80
2018-04-22T05:26:46.283Z,14.00
2018-04-22T05:29:13.906Z,14.10
2018-04-22T05:31:41.415Z,14.10
2018-04-22T05:34:08.916Z,14.20
2018-04-22T05:36:36.568Z,14.20
2018-04-22T05:39:05.845Z,14.20
2018-04-22T05:41:33.455Z,14.20
2018-04-22T05:44:00.974Z,14.20
2018-04-22T05:46:28.485Z,14.30
2018-04-22T05:48:56.019Z,14.30
2018-04-22T05:51:23.587Z,14.40
2018-04-22T05:53:51.060Z,14.40
2018-04-22T05:56:18.684Z,14.40
2018-04-22T05:58:46.189Z,14.50
2018-04-22T06:01:13.692Z,14.60
2018-04-22T06:03:41.445Z,14.70
2018-04-22T06:06:08.972Z,14.70
2018-04-22T06:08:36.485Z,14.80
2018-04-22T06:11:04.019Z,14.90
2018-04-22T06:13:31.529Z,14.90
2018-04-22T06:15:59.028Z,15.00
2018-04-22T06:18:26.589Z,15.10
2018-04-22T06:20:54.091Z,15.20
2018-04-22T06:23:22.478Z,15.20
2018-04-22T06:25:50.027Z,15.20
2018-04-22T06:28:17.579Z,15.30
2018-04-22T06:30:45.069Z,15.40
2018-04-22T06:33:12.699Z,15.40
2018-04-22T06:35:40.207Z,15.50
2018-04-22T06:38:07.736Z,15.60
2018-04-22T06:40:35.392Z,15.80
2018-04-22T06:43:02.923Z,15.80
2018-04-22T06:45:30.459Z,15.80
2018-04-22T06:47:58.077Z,16.00
2018-04-22T06:50:25.582Z,15.90
2018-04-22T06:52:53.133Z,15.90
2018-04-22T06:55:20.669Z,15.90
2018-04-22T06:57:48.198Z,16.00
2018-04-22T07:00:15.694Z,16.10
2018-04-22T07:02:43.267Z,16.10
2018-04-22T07:05:10.832Z,16.20
2018-04-22T07:07:38.347Z,16.20
2018-04-22T07:10:05.984Z,16.20
2018-04-22T07:12:33.519Z,16.40
2018-04-22T07:15:01.091Z,16.50
2018-04-22T07:17:28.708Z,16.50
2018-04-22T07:19:56.337Z,16.70
2018-04-22T07:22:23.891Z,16.70
2018-04-22T07:24:51.651Z,16.70
2018-04-22T07:27:19.178Z,16.70
2018-04-22T07:29:46.720Z,16.70
2018-04-22T07:32:14.405Z,16.70
2018-04-22T07:34:41.912Z,16.80
2018-04-22T07:37:09.437Z,17.00
2018-04-22T07:39:36.992Z,17.10
2018-04-22T07:42:04.527Z,17.10
2018-04-22T07:44:32.039Z,17.20
2018-04-22T07:46:59.582Z,17.30
2018-04-22T07:49:27.197Z,17.40
2018-04-22T07:51:54.771Z,17.50
2018-04-22T07:54:22.456Z,17.70
2018-04-22T07:56:50.006Z,17.70
2018-04-22T07:59:18.389Z,17.70
2018-04-22T08:01:46.141Z,17.60
2018-04-22T08:04:13.747Z,17.60
2018-04-22T08:06:41.305Z,17.60
2018-04-22T08:09:09.081Z,17.60
2018-04-22T08:11:36.733Z,17.80
2018-04-22T08:14:04.331Z,17.70
2018-04-22T08:16:32.078Z,17.90
2018-04-22T08:18:59.863Z,17.90
2018-04-22T08:21:27.428Z,18.20
2018-04-22T08:23:54.965Z,18.30
2018-04-22T08:26:22.532Z,18.30
2018-04-22T08:28:50.100Z,18.40
2018-04-22T08:31:17.666Z,18.50
2018-04-22T08:33:45.200Z,18.50
2018-04-22T08:36:12.779Z,18.70
2018-04-22T08:38:40.403Z,18.80
2018-04-22T08:41:07.963Z,18.80
2018-04-22T08:43:35.508Z,18.60
2018-04-22T08:46:03.358Z,18.40
2018-04-22T08:48:30.895Z,18.60
2018-04-22T08:50:58.427Z,18.60
2018-04-22T08:53:26.085Z,18.80
2018-04-22T08:55:53.679Z,18.90
2018-04-22T08:58:21.180Z,19.00
2018-04-22T09:00:48.806Z,19.00
2018-04-22T09:03:16.390Z,19.20
2018-04-22T09:05:43.936Z,19.30
2018-04-22T09:08:11.592Z,19.50
2018-04-22T09:10:39.116Z,19.70
2018-04-22T09:13:06.669Z,19.70
2018-04-22T09:15:34.553Z,19.80
2018-04-22T09:18:02.101Z,20.00
2018-04-22T09:20:29.664Z,20.00
2018-04-22T09:22:57.306Z,19.70
2018-04-22T09:25:24.831Z,19.70
2018-04-22T09:27:52.395Z,19.90
2018-04-22T09:30:20.011Z,19.90
2018-04-22T09:32:47.553Z,19.90
2018-04-22T09:35:15.085Z,19.90
2018-04-22T09:37:42.614Z,19.90
2018-04-22T09:40:10.115Z,20.10
2018-04-22T09:42:37.650Z,20.30
2018-04-22T09:45:05.237Z,20.30
2018-04-22T09:47:32.765Z,20.30
2018-04-22T09:50:00.286Z,20.40
2018-04-22T09:52:27.922Z,20.50
2018-04-22T09:54:55.423Z,20.70
2018-04-22T09:57:22.940Z,20.90
2018-04-22T09:59:50.643Z,20.80
2018-04-22T10:02:23.836Z,20.70
2018-04-22T10:04:51.478Z,20.70
2018-04-22T10:07:18.991Z,21.00
2018-04-22T10:09:46.497Z,21.30
2018-04-22T10:12:14.052Z,21.10
2018-04-22T10:14:41.561Z,21.30
2018-04-22T10:17:09.237Z,21.40
2018-04-22T10:19:37.077Z,21.40
2018-04-22T10:22:04.623Z,21.30
2018-04-22T10:24:32.145Z,21.50
2018-04-22T10:26:59.930Z,21.60
2018-04-22T10:29:27.460Z,21.50
2018-04-22T10:31:54.996Z,21.80
2018-04-22T10:34:22.678Z,21.80
2018-04-22T10:36:50.176Z,21.80
2018-04-22T10:39:17.695Z,21.80
2018-04-22T10:41:46.026Z,21.60
2018-04-22T10:44:13.566Z,21.60
2018-04-22T10:46:41.109Z,21.80
2018-04-22T10:49:08.619Z,21.50
2018-04-22T10:51:36.125Z,22.10
2018-04-22T10:54:03.631Z,22.00
2018-04-22T10:56:31.293Z,22.10
2018-04-22T10:58:58.804Z,22.00
2018-04-22T11:01:26.323Z,21.80
2018-04-22T11:03:53.848Z,22.30
2018-04-22T11:06:21.359Z,22.40
2018-04-22T11:08:48.874Z,22.30
2018-04-22T11:14:47.454Z,22.70
2018-04-22T11:17:14.964Z,22.90
2018-04-22T11:19:42.537Z,22.90
2018-04-22T11:22:10.950Z,22.70
2018-04-22T11:24:38.550Z,22.70
2018-04-22T11:27:06.837Z,22.80
2018-04-22T11:29:34.562Z,22.80
2018-04-22T11:32:02.083Z,23.00
2018-04-22T11:34:29.604Z,22.80
2018-04-22T11:36:57.368Z,23.20
2018-04-22T11:39:24.909Z,23.00
2018-04-22T11:41:52.431Z,22.70
2018-04-22T11:44:19.996Z,23.00
2018-04-22T11:46:47.499Z,23.50
2018-04-22T11:49:15.083Z,23.70
2018-04-22T11:51:42.748Z,23.40
2018-04-22T11:54:11.438Z,23.80
2018-04-22T11:56:39.074Z,23.60
2018-04-22T11:59:07.605Z,23.80
2018-04-22T12:01:35.136Z,23.70
2018-04-22T12:04:02.653Z,24.00
2018-04-22T12:06:30.401Z,24.40
2018-04-22T12:08:58.789Z,24.10
2018-04-22T12:11:26.342Z,24.10
2018-04-22T12:13:53.893Z,24.50
2018-04-22T12:16:21.509Z,24.30
2018-04-22T12:18:49.041Z,23.80
2018-04-22T12:21:16.767Z,23.80
2018-04-22T12:23:44.267Z,24.10
2018-04-22T12:26:11.791Z,24.50
2018-04-22T12:28:40.273Z,24.30
2018-04-22T12:31:08.539Z,24.40
2018-04-22T12:33:37.022Z,24.60
2018-04-22T12:36:05.400Z,25.10
2018-04-22T12:38:33.703Z,25.10
2018-04-22T12:41:01.242Z,25.10
2018-04-22T12:43:28.761Z,25.00
2018-04-22T12:45:56.312Z,25.20
2018-04-22T12:48:23.827Z,25.00
2018-04-22T12:50:51.328Z,24.80
2018-04-22T12:53:18.869Z,24.90
2018-04-22T12:55:47.131Z,24.30
2018-04-22T12:58:15.464Z,24.70
2018-04-22T13:00:43.220Z,24.70
2018-04-22T13:03:10.757Z,24.60
2018-04-22T13:05:38.298Z,24.40
2018-04-22T13:08:06.018Z,24.80
2018-04-22T13:10:33.540Z,25.10
2018-04-22T13:13:01.091Z,24.90
2018-04-22T13:15:28.653Z,24.80
2018-04-22T13:17:56.182Z,24.20
2018-04-22T13:20:23.717Z,24.30
2018-04-22T13:22:52.219Z,24.50
2018-04-22T13:25:20.109Z,24.50
2018-04-22T13:27:47.637Z,23.80
2018-04-22T13:30:16.135Z,24.10
2018-04-22T13:32:43.653Z,24.10
2018-04-22T13:35:11.167Z,24.30
2018-04-22T13:37:38.946Z,24.20
2018-04-22T13:40:06.451Z,24.10
2018-04-22T13:42:33.956Z,23.90
2018-04-22T13:45:01.582Z,23.30
2018-04-22T13:47:29.121Z,23.40
2018-04-22T13:49:56.778Z,23.30
2018-04-22T13:52:24.545Z,23.30
2018-04-22T13:54:52.067Z,23.40
2018-04-22T13:57:20.359Z,23.40
2018-04-22T13:59:47.909Z,23.40
2018-04-22T14:02:16.208Z,23.40
2018-04-22T14:04:43.705Z,23.40
2018-04-22T14:07:11.539Z,23.20
2018-04-22T14:09:39.811Z,23.30
2018-04-22T14:12:08.365Z,22.10
2018-04-22T14:14:35.881Z,22.10
2018-04-22T14:17:03.401Z,22.70
2018-04-22T14:19:31.225Z,22.80
2018-04-22T14:21:58.898Z,22.70
2018-04-22T14:24:26.440Z,22.90
2018-04-22T14:26:54.126Z,22.80
2018-04-22T14:29:21.710Z,22.70
2018-04-22T14:31:49.230Z,22.70
2018-04-22T14:34:16.902Z,22.70
2018-04-22T14:36:44.417Z,22.50
2018-04-22T14:39:11.951Z,22.50
2018-04-22T14:41:39.701Z,22.50
2018-04-22T14:44:19.098Z,22.40
2018-04-22T14:46:46.637Z,22.60
2018-04-22T14:49:14.190Z,22.50
2018-04-22T14:51:41.740Z,22.60
2018-04-22T14:54:09.581Z,22.60
2018-04-22T14:56:37.172Z,22.50
2018-04-22T14:59:05.467Z,22.60
2018-04-22T15:01:33.057Z,22.40
2018-04-22T15:04:00.562Z,22.50
2018-04-22T15:06:28.138Z,22.50
2018-04-22T15:08:55.768Z,22.40
2018-04-22T15:11:24.085Z,22.40
2018-04-22T15:13:51.634Z,22.30
2018-04-22T15:16:19.324Z,22.40
2018-04-22T15:18:46.828Z,22.40
2018-04-22T15:21:14.339Z,22.30
2018-04-22T15:23:41.877Z,22.30
2018-04-22T15:26:10.164Z,22.20
2018-04-22T15:28:37.685Z,22.20
2018-04-22T15:31:05.298Z,22.20
2018-04-22T15:33:33.571Z,22.00
2018-04-22T15:36:01.858Z,22.10
2018-04-22T15:38:29.382Z,22.00
2018-04-22T15:40:56.921Z,22.00
2018-04-22T15:43:24.547Z,22.00
2018-04-22T15:45:52.811Z,22.00
2018-04-22T15:48:20.322Z,22.00
2018-04-22T15:50:47.974Z,21.90
2018-04-22T15:53:15.483Z,22.00
2018-04-22T15:55:43.067Z,22.00
2018-04-22T15:58:11.482Z,21.90
2018-04-22T16:00:39.732Z,21.80
2018-04-22T16:03:08.034Z,21.90
2018-04-22T16:05:35.545Z,21.90
2018-04-22T16:08:03.056Z,21.80
2018-04-22T16:10:31.563Z,21.70
2018-04-22T16:12:59.084Z,21.70
2018-04-22T16:15:26.596Z,21.60
2018-04-22T16:17:54.350Z,21.50
2018-04-22T16:20:21.893Z,21.40
2018-04-22T16:22:50.175Z,21.30
2018-04-22T16:25:18.576Z,21.30
2018-04-22T16:27:46.106Z,21.30
2018-04-22T16:30:14.410Z,21.30
2018-04-22T16:32:42.073Z,21.30
2018-04-22T16:35:10.384Z,21.30
2018-04-22T16:37:37.895Z,21.30
2018-04-22T16:40:05.528Z,21.30
2018-04-22T16:42:33.059Z,21.30
2018-04-22T16:45:00.576Z,21.30
2018-04-22T16:47:28.123Z,21.10
2018-04-22T16:49:55.660Z,21.00
2018-04-22T16:52:23.219Z,21.00
2018-04-22T16:54:50.879Z,21.10
2018-04-22T16:57:18.445Z,21.00
2018-04-22T16:59:45.961Z,21.10
2018-04-22T17:02:13.680Z,20.90
2018-04-22T17:04:41.201Z,20.90
2018-04-22T17:07:08.810Z,20.80
2018-04-22T17:09:36.409Z,20.70
2018-04-22T17:12:03.937Z,20.60
2018-04-22T17:14:31.453Z,20.50
2018-04-22T17:16:59.012Z,20.40
2018-04-22T17:19:26.540Z,20.40
2018-04-22T17:21:54.068Z,20.20
2018-04-22T17:24:22.367Z,20.00
2018-04-22T17:26:49.878Z,20.00
2018-04-22T17:29:17.429Z,19.90
2018-04-22T17:31:45.105Z,19.80
2018-04-22T17:34:12.617Z,19.70
2018-04-22T17:36:40.178Z,19.60
2018-04-22T17:39:07.876Z,19.50
2018-04-22T17:41:35.386Z,19.40
2018-04-22T17:44:03.673Z,19.10
2018-04-22T17:46:31.988Z,19.10
2018-04-22T17:49:00.361Z,18.90
2018-04-22T17:51:27.908Z,18.90
2018-04-22T17:53:56.557Z,18.80
2018-04-22T17:56:24.078Z,18.70
2018-04-22T17:58:51.854Z,18.60
2018-04-22T18:01:19.468Z,18.60
2018-04-22T18:03:47.023Z,18.30
2018-04-22T18:06:14.778Z,18.10
2018-04-22T18:08:42.294Z,18.10
2018-04-22T18:11:10.781Z,18.00
2018-04-22T18:13:38.374Z,18.00
2018-04-22T18:16:05.888Z,17.90
2018-04-22T18:18:34.167Z,17.90
2018-04-22T18:21:02.666Z,17.80
2018-04-22T18:23:30.993Z,17.70
2018-04-22T18:25:58.545Z,17.70
2018-04-22T18:28:26.076Z,17.70
2018-04-22T18:30:54.349Z,17.70
2018-04-22T18:33:22.674Z,17.50
2018-04-22T18:35:50.193Z,17.50
2018-04-22T18:38:18.482Z,17.30
2018-04-22T18:40:46.919Z,17.30
2018-04-22T18:43:14.547Z,17.30
2018-04-22T18:45:42.111Z,17.20
2018-04-22T18:48:09.691Z,17.10
2018-04-22T18:50:37.235Z,17.10
2018-04-22T18:53:04.855Z,17.10
2018-04-22T18:55:32.405Z,17.00
2018-04-22T18:57:59.951Z,16.90
2018-04-22T19:00:27.469Z,16.90
2018-04-22T19:02:55.862Z,16.80
2018-04-22T19:05:24.160Z,16.80
2018-04-22T19:07:51.680Z,16.70
2018-04-22T19:10:19.390Z,16.70
2018-04-22T19:12:46.945Z,16.60
2018-04-22T19:15:14.471Z,16.60
2018-04-22T19:20:16.805Z,16.60
2018-04-22T19:22:44.480Z,16.50
2018-04-22T19:25:12.005Z,16.60
2018-04-22T19:27:40.300Z,16.30
2018-04-22T19:30:08.708Z,16.20
2018-04-22T19:32:36.227Z,16.20
2018-04-22T19:35:03.819Z,16.20
2018-04-22T19:37:31.425Z,16.20
2018-04-22T19:39:59.041Z,16.10
2018-04-22T19:42:27.347Z,16.00
2018-04-22T19:44:54.992Z,16.00
2018-04-22T19:47:22.559Z,16.00
2018-04-22T19:49:50.831Z,15.80
2018-04-22T19:52:19.205Z,15.60
2018-04-22T19:54:47.524Z,15.70
2018-04-22T19:57:15.691Z,15.60
2018-04-22T19:59:43.262Z,15.60
2018-04-22T20:02:10.801Z,15.50
2018-04-22T20:04:39.194Z,15.30
2018-04-22T20:07:06.719Z,15.30
2018-04-22T20:09:34.280Z,15.20
2018-04-22T20:12:01.919Z,15.20
2018-04-22T20:14:29.451Z,15.10
2018-04-22T20:16:56.988Z,15.00
2018-04-22T20:19:24.637Z,15.10
2018-04-22T20:21:52.182Z,15.10
2018-04-22T20:24:19.897Z,15.10
2018-04-22T20:26:48.288Z,14.90
2018-04-22T20:29:15.806Z,14.90
2018-04-22T20:31:43.329Z,14.90
2018-04-22T20:34:11.123Z,14.80
2018-04-22T20:36:38.696Z,14.70
2018-04-22T20:39:06.207Z,14.60
2018-04-22T20:41:34.632Z,14.50
2018-04-22T20:44:02.223Z,14.40
2018-04-22T20:46:29.842Z,14.40
2018-04-22T20:48:57.788Z,14.40
2018-04-22T20:51:26.086Z,14.40
2018-04-22T20:53:53.745Z,14.40
2018-04-22T20:56:22.694Z,14.20
2018-04-22T20:58:50.199Z,14.20
2018-04-22T21:01:18.582Z,14.20
2018-04-22T21:03:46.935Z,14.20
2018-04-22T21:06:14.575Z,14.20
2018-04-22T21:08:42.231Z,14.20
2018-04-22T21:11:10.706Z,14.10
2018-04-22T21:13:38.251Z,14.10
2018-04-22T21:16:05.815Z,14.10
2018-04-22T21:18:33.607Z,14.00
2018-04-22T21:21:01.186Z,14.00
2018-04-22T21:23:28.698Z,14.00
2018-04-22T21:25:57.129Z,13.90
2018-04-22T21:28:24.685Z,13.90
2018-04-22T21:30:52.184Z,13.90
2018-04-22T21:33:19.888Z,13.80
2018-04-22T21:35:47.411Z,13.80
2018-04-22T21:38:14.964Z,13.90
2018-04-22T21:40:44.719Z,13.80
2018-04-22T21:43:12.996Z,13.80
2018-04-22T21:45:41.306Z,13.70
2018-04-22T21:48:08.834Z,13.70
2018-04-22T21:50:36.353Z,13.70
2018-04-22T21:53:03.992Z,13.60
2018-04-22T21:55:31.539Z,13.60
2018-04-22T21:57:59.832Z,13.60
2018-04-22T22:00:27.378Z,13.60
2018-04-22T22:02:55.664Z,13.60
2018-04-22T22:05:23.967Z,13.60
2018-04-22T22:07:51.465Z,13.60
2018-04-22T22:10:18.976Z,13.50
2018-04-22T22:12:47.376Z,13.40
2018-04-22T22:15:14.921Z,13.40
2018-04-22T22:17:43.215Z,13.40
2018-04-22T22:20:10.853Z,13.40
2018-04-22T22:22:39.124Z,13.30
2018-04-22T22:25:06.657Z,13.30
2018-04-22T22:27:34.331Z,13.30
2018-04-22T22:30:01.849Z,13.40
2018-04-22T22:32:29.360Z,13.20
2018-04-22T22:34:56.991Z,13.20
2018-04-22T22:37:24.491Z,13.30
2018-04-22T22:39:52.004Z,13.20
2018-04-22T22:42:19.777Z,13.10
2018-04-22T22:44:47.306Z,13.10
2018-04-22T22:47:14.816Z,13.10
2018-04-22T22:49:42.365Z,13.10
2018-04-22T22:52:09.913Z,13.10
2018-04-22T22:54:38.180Z,12.90
2018-04-22T22:57:05.817Z,12.90
2018-04-22T22:59:33.332Z,12.80
2018-04-22T23:02:00.848Z,12.70
2018-04-22T23:04:28.468Z,12.70
2018-04-22T23:06:55.979Z,12.60
2018-04-22T23:09:23.502Z,12.70
2018-04-22T23:11:51.059Z,12.70
2018-04-22T23:14:18.573Z,12.50
2018-04-22T23:16:46.066Z,12.60
2018-04-22T23:19:14.368Z,12.60
2018-04-22T23:21:41.873Z,12.60
2018-04-22T23:24:09.382Z,12.60
2018-04-22T23:26:37.033Z,12.50
2018-04-22T23:29:05.312Z,12.50
2018-04-22T23:31:33.715Z,12.50
2018-04-22T23:34:01.230Z,12.50
2018-04-22T23:36:28.737Z,12.50
2018-04-22T23:38:56.394Z,12.50
2018-04-22T23:41:24.659Z,12.50
2018-04-22T23:43:52.163Z,12.50
2018-04-22T23:46:19.790Z,12.40
2018-04-22T23:48:47.289Z,12.40
2018-04-22T23:51:14.789Z,12.40
2018-04-22T23:53:42.446Z,12.40
2018-04-22T23:56:09.950Z,12.40
2018-04-22T23:58:38.207Z,12.30
